Time;durP1;ratioP1;P1;durP2;ratioP2;P2;SDS_P1;SDS_P2;PMS_P1;PMS_P2;Temp;Humidity;BMP_temperature;BMP_pressure;BME280_temperature;BME280_humidity;BME280_pressure;Samples;Min_cycle;Max_cycle;Signal;HPM_P1;HPM_P2
2022/03/13 00:01:01;;;;;;;24.38;20.98;;;;;;;4.25;nan;99441.69;4913306;29;20500;-74
2022/03/13 00:03:28;;;;;;;27.20;22.02;;;;;;;4.25;nan;99433.03;4892438;29;20750;-74
2022/03/13 00:05:54;;;;;;;22.17;18.42;;;;;;;4.19;nan;99440.19;4913927;29;20477;-74
2022/03/13 00:08:29;;;;;;;23.25;18.60;;;;;;;4.16;nan;99440.31;4913419;29;20214;-74
2022/03/13 00:10:57;;;;;;;25.42;17.63;;;;;;;4.08;nan;99444.97;4911545;29;20635;-74
2022/03/13 00:13:32;;;;;;;22.63;16.55;;;;;;;4.03;nan;99448.66;4915617;29;20229;-74
2022/03/13 00:16:03;;;;;;;20.98;17.10;;;;;;;3.98;nan;99446.22;4914440;29;20264;-74
2022/03/13 00:18:32;;;;;;;23.00;15.70;;;;;;;3.97;nan;99447.97;4913359;29;20328;-74
2022/03/13 00:21:02;;;;;;;25.02;16.35;;;;;;;3.92;nan;99447.31;4914954;29;20220;-74
2022/03/13 00:23:28;;;;;;;21.33;15.80;;;;;;;3.87;nan;99453.59;4913572;29;20240;-74
2022/03/13 00:25:54;;;;;;;20.10;15.80;;;;;;;3.85;nan;99458.00;4914756;29;20458;-74
2022/03/13 00:28:19;;;;;;;18.20;16.07;;;;;;;3.84;nan;99448.53;4912675;29;20423;-74
2022/03/13 00:30:44;;;;;;;25.53;16.50;;;;;;;3.83;nan;99457.22;4915595;29;20224;-74
2022/03/13 00:33:10;;;;;;;22.83;15.77;;;;;;;3.80;nan;99454.72;4913262;29;20295;-74
2022/03/13 00:35:38;;;;;;;25.97;16.20;;;;;;;3.76;nan;99451.41;4912929;29;20205;-74
2022/03/13 00:38:04;;;;;;;22.58;15.25;;;;;;;3.72;nan;99455.00;4909785;29;20701;-74
2022/03/13 00:40:29;;;;;;;19.27;14.40;;;;;;;3.65;nan;99449.22;4912368;29;20220;-74
2022/03/13 00:43:01;;;;;;;19.98;15.85;;;;;;;3.58;nan;99455.53;4913020;29;20261;-74
2022/03/13 00:45:27;;;;;;;22.07;14.53;;;;;;;3.52;nan;99466.16;4915404;29;20612;-74
2022/03/13 00:47:52;;;;;;;22.38;13.95;;;;;;;3.42;nan;99465.66;4919196;29;20235;-75
2022/03/13 00:50:18;;;;;;;23.40;15.50;;;;;;;3.38;nan;99465.84;4920326;29;20304;-75
2022/03/13 00:52:44;;;;;;;19.40;14.70;;;;;;;3.38;nan;99461.47;4914479;29;20284;-75
2022/03/13 00:55:10;;;;;;;23.48;16.15;;;;;;;3.44;nan;99465.59;4914683;29;20237;-75
2022/03/13 00:57:35;;;;;;;18.93;14.00;;;;;;;3.43;nan;99467.34;4913043;29;20267;-75
2022/03/13 01:00:01;;;;;;;20.93;13.90;;;;;;;3.45;nan;99464.69;4911030;29;20221;-75
2022/03/13 01:02:26;;;;;;;19.57;14.83;;;;;;;3.45;nan;99459.50;4914449;29;20236;-76
2022/03/13 01:04:51;;;;;;;25.40;17.00;;;;;;;3.45;nan;99462.94;4910986;29;20826;-75
2022/03/13 01:07:17;;;;;;;18.70;13.43;;;;;;;3.46;nan;99462.03;4913574;29;20217;-75
2022/03/13 01:09:42;;;;;;;21.80;14.97;;;;;;;3.43;nan;99459.56;4912632;29;20205;-75
2022/03/13 01:12:10;;;;;;;17.80;14.07;;;;;;;3.43;nan;99469.94;4912535;29;20814;-75
2022/03/13 01:14:36;;;;;;;23.17;15.55;;;;;;;3.44;nan;99471.63;4914463;29;20292;-75
2022/03/13 01:17:04;;;;;;;19.00;14.40;;;;;;;3.48;nan;99459.38;4911710;29;20205;-75
2022/03/13 01:19:30;;;;;;;21.08;17.15;;;;;;;3.46;nan;99458.59;4913707;29;20221;-75
2022/03/13 01:21:56;;;;;;;20.03;14.90;;;;;;;3.39;nan;99463.16;4914036;29;20276;-75
2022/03/13 01:24:44;;;;;;;25.10;14.90;;;;;;;3.31;nan;99452.22;4913331;29;20217;-75
2022/03/13 01:27:15;;;;;;;21.27;13.63;;;;;;;3.19;nan;99456.13;4916323;29;20461;-75
2022/03/13 01:29:41;;;;;;;23.33;16.15;;;;;;;3.10;nan;99454.66;4916030;29;20384;-73
2022/03/13 01:32:10;;;;;;;19.05;12.68;;;;;;;3.05;nan;99451.41;4916059;29;20249;-73
2022/03/13 01:34:48;;;;;;;18.77;14.48;;;;;;;2.97;nan;99444.78;4918160;29;20424;-73
2022/03/13 01:37:28;;;;;;;18.38;13.95;;;;;;;2.87;nan;99442.53;4916005;29;20308;-72
2022/03/13 01:39:55;;;;;;;20.60;14.88;;;;;;;2.81;nan;99450.53;4916875;29;21085;-72
2022/03/13 01:42:21;;;;;;;23.23;15.80;;;;;;;2.80;nan;99443.63;4913930;29;20744;-73
2022/03/13 01:44:46;;;;;;;28.93;17.40;;;;;;;2.82;nan;99449.59;4916751;29;20598;-73
2022/03/13 01:47:11;;;;;;;38.43;23.93;;;;;;;2.80;nan;99450.56;4916332;29;20545;-75
2022/03/13 01:49:37;;;;;;;28.93;18.77;;;;;;;2.73;nan;99447.34;4915409;29;20218;-75
2022/03/13 01:52:03;;;;;;;28.77;17.93;;;;;;;2.73;nan;99447.34;4915969;29;20620;-75
2022/03/13 01:54:32;;;;;;;23.07;15.70;;;;;;;2.75;nan;99455.91;4899308;29;20632;-75
2022/03/13 01:56:59;;;;;;;20.80;13.75;;;;;;;2.76;nan;99444.66;4918368;29;20588;-75
2022/03/13 01:59:27;;;;;;;17.63;14.23;;;;;;;2.78;nan;99440.25;4918258;29;20256;-75
2022/03/13 02:01:52;;;;;;;20.25;16.70;;;;;;;2.81;nan;99441.91;4911840;29;20970;-75
2022/03/13 02:04:25;;;;;;;25.43;16.63;;;;;;;2.82;nan;99436.63;4916400;29;20225;-73
2022/03/13 02:06:53;;;;;;;21.38;16.05;;;;;;;2.79;nan;99444.53;4914693;29;20919;-73
2022/03/13 02:09:19;;;;;;;19.88;14.32;;;;;;;2.82;nan;99431.44;4915486;29;20464;-73
2022/03/13 02:11:44;;;;;;;22.70;14.50;;;;;;;2.83;nan;99425.34;4915371;29;20244;-75
2022/03/13 02:14:11;;;;;;;16.50;14.10;;;;;;;2.83;nan;99430.53;4913581;29;20214;-75
2022/03/13 02:16:38;;;;;;;22.33;13.68;;;;;;;2.81;nan;99429.78;4914913;29;20342;-75
2022/03/13 02:19:05;;;;;;;18.60;14.77;;;;;;;2.82;nan;99426.25;4916250;29;20209;-75
2022/03/13 02:21:36;;;;;;;22.05;14.27;;;;;;;2.84;nan;99427.06;4915754;29;20748;-75
2022/03/13 02:24:06;;;;;;;19.08;14.68;;;;;;;2.85;nan;99420.13;4915689;29;20300;-75
2022/03/13 02:26:33;;;;;;;25.25;14.55;;;;;;;2.87;nan;99428.72;4915656;29;20841;-73
2022/03/13 02:28:58;;;;;;;20.27;14.73;;;;;;;2.85;nan;99423.56;4915886;29;20678;-73
2022/03/13 02:31:28;;;;;;;23.27;15.07;;;;;;;2.78;nan;99423.81;4915334;29;20488;-73
2022/03/13 02:33:53;;;;;;;20.58;15.55;;;;;;;2.72;nan;99417.09;4915880;29;20457;-72
2022/03/13 02:36:32;;;;;;;19.10;14.10;;;;;;;2.72;nan;99417.09;4914512;29;20717;-73
2022/03/13 02:39:02;;;;;;;24.58;14.20;;;;;;;2.72;nan;99417.09;4915252;29;20835;-73
2022/03/13 02:41:28;;;;;;;27.85;16.00;;;;;;;2.73;nan;99415.34;4915375;29;20292;-73
2022/03/13 02:43:55;;;;;;;22.57;14.90;;;;;;;2.73;nan;99416.22;4916646;29;20627;-75
2022/03/13 02:46:23;;;;;;;22.15;14.73;;;;;;;2.73;nan;99416.22;4915918;29;20492;-73
2022/03/13 02:48:50;;;;;;;23.48;15.05;;;;;;;2.74;nan;99420.50;4916788;29;20221;-73
2022/03/13 02:51:16;;;;;;;19.13;14.35;;;;;;;2.76;nan;99426.50;4913128;29;20210;-73
2022/03/13 02:53:42;;;;;;;22.02;14.52;;;;;;;2.74;nan;99430.03;4917722;29;20207;-73
2022/03/13 02:56:08;;;;;;;24.33;14.00;;;;;;;2.74;nan;99425.69;4574585;29;9999826;-73
2022/03/13 02:58:34;;;;;;;18.77;13.80;;;;;;;2.77;nan;99424.72;4915860;29;20228;-73
2022/03/13 03:00:59;;;;;;;21.10;13.30;;;;;;;2.79;nan;99425.53;4915184;29;20874;-73
2022/03/13 03:03:25;;;;;;;18.27;11.70;;;;;;;2.76;nan;99421.31;4913886;29;20523;-73
2022/03/13 03:05:51;;;;;;;20.17;14.23;;;;;;;2.67;nan;99429.38;4916083;29;20205;-73
2022/03/13 03:08:17;;;;;;;20.27;14.13;;;;;;;2.57;nan;99428.03;4914094;29;20568;-73
2022/03/13 03:10:43;;;;;;;16.77;13.38;;;;;;;2.43;nan;99423.28;4914657;29;20548;-73
2022/03/13 03:13:10;;;;;;;21.35;13.77;;;;;;;2.30;nan;99430.63;4915514;29;20370;-73
2022/03/13 03:15:36;;;;;;;17.38;14.30;;;;;;;2.22;nan;99424.84;4912915;29;20221;-73
2022/03/13 03:18:03;;;;;;;21.50;14.90;;;;;;;2.15;nan;99429.38;4913647;29;20202;-73
2022/03/13 03:20:29;;;;;;;19.77;14.55;;;;;;;2.07;nan;99428.75;4915034;29;20264;-73
2022/03/13 03:22:55;;;;;;;25.43;14.97;;;;;;;2.02;nan;99425.47;4915216;29;20237;-73
2022/03/13 03:25:25;;;;;;;17.83;15.40;;;;;;;2.03;nan;99426.34;4914037;29;20698;-73
2022/03/13 03:27:51;;;;;;;21.00;13.98;;;;;;;2.07;nan;99435.69;4913295;29;20221;-73
2022/03/13 03:30:24;;;;;;;21.60;16.30;;;;;;;2.12;nan;99426.88;4915350;29;20204;-73
2022/03/13 03:32:50;;;;;;;20.08;14.52;;;;;;;2.21;nan;99436.09;4916093;29;20245;-73
2022/03/13 03:35:19;;;;;;;24.15;14.95;;;;;;;2.30;nan;99433.22;4915311;29;20213;-73
2022/03/13 03:37:47;;;;;;;20.42;15.35;;;;;;;2.39;nan;99438.09;4913491;29;20221;-73
2022/03/13 03:40:13;;;;;;;20.55;14.40;;;;;;;2.44;nan;99431.00;4913767;29;20214;-73
2022/03/13 03:42:41;;;;;;;18.57;13.90;;;;;;;2.51;nan;99435.97;4916664;29;20863;-73
2022/03/13 03:45:07;;;;;;;23.42;14.50;;;;;;;2.57;nan;99434.03;4916982;29;20288;-74
2022/03/13 03:47:33;;;;;;;22.33;15.25;;;;;;;2.62;nan;99432.16;4915525;29;20252;-74
2022/03/13 03:49:59;;;;;;;21.17;15.70;;;;;;;2.64;nan;99437.25;4915086;29;20308;-74
2022/03/13 03:52:25;;;;;;;22.60;15.23;;;;;;;2.65;nan;99438.97;4897597;29;20225;-74
2022/03/13 03:54:51;;;;;;;27.87;17.70;;;;;;;2.65;nan;99434.63;4918430;29;20690;-74
2022/03/13 03:57:18;;;;;;;17.42;14.57;;;;;;;2.68;nan;99436.28;4914939;29;20205;-74
2022/03/13 03:59:44;;;;;;;18.35;13.93;;;;;;;2.72;nan;99440.44;4916064;29;20301;-74
2022/03/13 04:02:09;;;;;;;24.70;17.43;;;;;;;2.77;nan;99443.72;4913412;29;20539;-74
2022/03/13 04:04:34;;;;;;;20.53;16.73;;;;;;;2.78;nan;99429.88;4913347;29;20226;-74
2022/03/13 04:07:00;;;;;;;18.83;13.20;;;;;;;2.79;nan;99430.72;4897157;29;20578;-74
2022/03/13 04:09:25;;;;;;;27.03;16.57;;;;;;;2.77;nan;99435.94;4914543;29;20201;-74
2022/03/13 04:11:52;;;;;;;20.90;15.43;;;;;;;2.75;nan;99434.31;4897114;29;20221;-74
2022/03/13 04:14:20;;;;;;;22.25;15.38;;;;;;;2.73;nan;99433.50;4913796;29;20718;-74
2022/03/13 04:16:45;;;;;;;19.42;14.90;;;;;;;2.73;nan;99434.38;4915160;29;20209;-74
2022/03/13 04:19:11;;;;;;;24.13;15.20;;;;;;;2.74;nan;99445.59;4916041;29;20296;-74
2022/03/13 04:21:40;;;;;;;21.50;15.70;;;;;;;2.73;nan;99447.34;4912639;29;20233;-74
2022/03/13 04:24:11;;;;;;;22.02;14.40;;;;;;;2.72;nan;99450.81;4912950;29;20263;-74
2022/03/13 04:26:39;;;;;;;17.52;14.52;;;;;;;2.72;nan;99455.16;4915299;29;20217;-74
2022/03/13 04:29:06;;;;;;;17.10;13.52;;;;;;;2.73;nan;99449.94;4913015;29;20339;-74
2022/03/13 04:31:34;;;;;;;26.50;15.70;;;;;;;2.79;nan;99457.50;4913552;29;21073;-74
2022/03/13 04:34:00;;;;;;;23.30;16.40;;;;;;;2.76;nan;99454.19;4914482;29;20465;-74
2022/03/13 04:36:26;;;;;;;19.00;15.30;;;;;;;2.69;nan;99450.09;4912908;29;20451;-74
2022/03/13 04:38:51;;;;;;;20.10;14.57;;;;;;;2.68;nan;99449.25;4911809;29;20251;-74
2022/03/13 04:41:17;;;;;;;23.43;15.83;;;;;;;2.68;nan;99446.66;4913887;29;20205;-74
2022/03/13 04:43:44;;;;;;;21.27;15.38;;;;;;;2.73;nan;99460.31;4910555;29;20249;-74
2022/03/13 04:46:09;;;;;;;28.13;15.67;;;;;;;2.73;nan;99455.13;4913095;29;20300;-74
2022/03/13 04:48:35;;;;;;;16.20;14.30;;;;;;;2.76;nan;99460.22;4911817;29;20206;-74
2022/03/13 04:51:02;;;;;;;28.60;18.40;;;;;;;2.76;nan;99460.22;4910428;29;20697;-74
2022/03/13 04:53:28;;;;;;;19.23;14.95;;;;;;;2.72;nan;99458.59;4910683;29;20213;-74
2022/03/13 04:55:53;;;;;;;20.85;16.75;;;;;;;2.64;nan;99455.41;4909830;29;20205;-74
2022/03/13 04:58:19;;;;;;;27.77;17.30;;;;;;;2.60;nan;99456.44;4913232;29;20313;-74
2022/03/13 05:00:47;;;;;;;24.77;19.05;;;;;;;2.64;nan;99463.19;4910711;29;20704;-74
2022/03/13 05:03:14;;;;;;;33.15;18.40;;;;;;;2.65;nan;99475.28;4911922;29;20304;-74
2022/03/13 05:05:40;;;;;;;26.13;15.30;;;;;;;2.68;nan;99475.19;4913136;29;20699;-74
2022/03/13 05:08:14;;;;;;;20.73;14.50;;;;;;;2.65;nan;99478.72;4913332;29;20221;-74
2022/03/13 05:10:40;;;;;;;22.63;15.65;;;;;;;2.62;nan;99471.03;4912703;29;20248;-74
2022/03/13 05:13:08;;;;;;;24.85;15.98;;;;;;;2.58;nan;99482.41;4913401;29;20602;-74
2022/03/13 05:15:36;;;;;;;24.20;15.10;;;;;;;2.52;nan;99474.84;4913943;29;20663;-74
2022/03/13 05:18:01;;;;;;;20.27;16.67;;;;;;;2.52;nan;99476.59;4913384;29;20978;-74
2022/03/13 05:20:28;;;;;;;26.13;15.67;;;;;;;2.55;nan;99479.06;4895896;29;20212;-74
2022/03/13 05:22:54;;;;;;;31.50;17.00;;;;;;;2.58;nan;99477.22;4914272;29;20785;-74
2022/03/13 05:25:20;;;;;;;21.30;14.43;;;;;;;2.62;nan;99475.38;4908313;29;20609;-74
2022/03/13 05:27:45;;;;;;;22.83;15.20;;;;;;;2.60;nan;99477.19;4913990;29;20209;-74
2022/03/13 05:30:11;;;;;;;26.40;15.57;;;;;;;2.64;nan;99483.94;4912774;29;20692;-74
2022/03/13 05:32:38;;;;;;;21.90;18.10;;;;;;;2.73;nan;99486.25;4875030;29;1070236;-74
2022/03/13 05:35:03;;;;;;;23.02;14.65;;;;;;;2.80;nan;99484.28;4914145;29;20201;-74
2022/03/13 05:37:29;;;;;;;21.20;15.63;;;;;;;2.87;nan;99491.81;4913142;29;20206;-74
2022/03/13 05:39:55;;;;;;;27.70;15.20;;;;;;;2.94;nan;99497.63;4910623;29;20730;-74
2022/03/13 05:42:24;;;;;;;21.07;14.27;;;;;;;3.00;nan;99499.19;4910573;29;20230;-74
2022/03/13 05:44:53;;;;;;;18.73;15.57;;;;;;;3.03;nan;99506.84;4912778;29;20239;-74
2022/03/13 05:47:19;;;;;;;25.63;16.75;;;;;;;3.07;nan;99505.84;4914039;29;20268;-74
2022/03/13 05:49:45;;;;;;;23.73;14.90;;;;;;;3.15;nan;99502.97;4912370;29;20629;-74
2022/03/13 05:52:13;;;;;;;21.65;13.90;;;;;;;3.21;nan;99501.00;4910371;29;20232;-74
2022/03/13 05:54:39;;;;;;;21.73;15.35;;;;;;;3.27;nan;99506.00;4914041;29;20269;-74
2022/03/13 05:57:06;;;;;;;23.15;15.13;;;;;;;3.30;nan;99503.28;4909248;29;20210;-74
2022/03/13 05:59:34;;;;;;;20.27;13.98;;;;;;;3.32;nan;99504.09;4913138;29;21120;-74
2022/03/13 06:02:01;;;;;;;17.42;15.32;;;;;;;3.36;nan;99499.63;4913330;29;20225;-74
2022/03/13 06:04:27;;;;;;;20.95;14.95;;;;;;;3.41;nan;99502.06;4911110;29;20221;-74
2022/03/13 06:06:52;;;;;;;19.20;13.53;;;;;;;3.43;nan;99500.25;4911125;29;20236;-74
2022/03/13 06:09:18;;;;;;;23.33;14.97;;;;;;;3.40;nan;99493.41;4912161;29;20351;-74
2022/03/13 06:11:43;;;;;;;21.30;16.90;;;;;;;3.42;nan;99499.41;4914667;29;20674;-74
2022/03/13 06:14:08;;;;;;;24.63;16.03;;;;;;;3.47;nan;99499.25;4914148;29;20252;-74
2022/03/13 06:16:35;;;;;;;19.90;13.30;;;;;;;3.53;nan;99501.59;4914341;29;20257;-74
2022/03/13 06:19:00;;;;;;;22.70;16.50;;;;;;;3.57;nan;99502.38;4911488;29;20571;-75
2022/03/13 06:21:25;;;;;;;21.10;12.83;;;;;;;3.59;nan;99496.19;4915822;29;20212;-74
2022/03/13 06:23:51;;;;;;;22.70;14.07;;;;;;;3.62;nan;99501.28;4914538;29;20253;-74
2022/03/13 06:26:16;;;;;;;26.30;15.77;;;;;;;3.64;nan;99494.25;4917366;29;20216;-75
2022/03/13 06:28:42;;;;;;;22.90;13.93;;;;;;;3.66;nan;99497.66;4916180;29;20642;-74
2022/03/13 06:31:08;;;;;;;22.15;14.40;;;;;;;3.70;nan;99499.25;4899052;29;20525;-74
2022/03/13 06:33:34;;;;;;;19.83;14.60;;;;;;;3.77;nan;99494.66;4913828;29;20986;-74
2022/03/13 06:35:59;;;;;;;24.77;16.73;;;;;;;3.81;nan;99485.84;4914761;29;20217;-74
2022/03/13 06:38:25;;;;;;;26.27;18.47;;;;;;;3.90;nan;99487.25;4915608;29;20205;-74
2022/03/13 06:40:51;;;;;;;25.37;17.17;;;;;;;3.96;nan;99490.44;4916325;29;20208;-74
2022/03/13 06:43:17;;;;;;;19.30;15.18;;;;;;;4.02;nan;99494.56;4914803;29;20587;-75
2022/03/13 06:45:42;;;;;;;22.27;16.23;;;;;;;4.08;nan;99483.94;4915611;29;20692;-74
2022/03/13 06:48:08;;;;;;;21.30;14.87;;;;;;;4.14;nan;99478.50;4913482;29;20289;-74
2022/03/13 06:50:33;;;;;;;22.77;14.27;;;;;;;4.18;nan;99476.63;4916489;29;20221;-74
2022/03/13 06:52:59;;;;;;;18.93;14.50;;;;;;;4.22;nan;99463.44;4914614;29;20809;-74
2022/03/13 06:55:25;;;;;;;22.23;13.40;;;;;;;4.29;nan;99463.19;4913547;29;20216;-74
2022/03/13 06:57:51;;;;;;;20.97;13.07;;;;;;;4.37;nan;99453.31;4899676;29;20912;-74
2022/03/13 07:00:17;;;;;;;20.87;13.33;;;;;;;4.44;nan;99455.63;4916678;29;20288;-74
2022/03/13 07:02:42;;;;;;;18.23;12.55;;;;;;;4.54;nan;99448.28;4898253;29;20238;-74
2022/03/13 07:05:08;;;;;;;22.88;13.40;;;;;;;4.64;nan;99443.53;4916077;29;20620;-74
2022/03/13 07:07:34;;;;;;;19.00;12.30;;;;;;;4.79;nan;99445.50;4916665;29;20304;-74
2022/03/13 07:09:59;;;;;;;18.70;11.90;;;;;;;4.95;nan;99440.50;4897121;29;20206;-74
2022/03/13 07:12:25;;;;;;;16.57;12.30;;;;;;;5.17;nan;99447.38;4915288;29;20247;-74
2022/03/13 07:14:55;;;;;;;17.67;10.53;;;;;;;5.40;nan;99449.81;4916128;29;20201;-74
2022/03/13 07:17:21;;;;;;;20.08;12.23;;;;;;;5.64;nan;99462.59;4917053;29;20808;-74
2022/03/13 07:19:47;;;;;;;17.60;12.53;;;;;;;5.89;nan;99457.97;4913634;29;20388;-74
2022/03/13 07:22:14;;;;;;;24.42;15.25;;;;;;;6.14;nan;99459.44;4919354;29;20489;-74
2022/03/13 07:24:41;;;;;;;28.83;17.70;;;;;;;6.31;nan;99476.88;4919312;29;20272;-74
2022/03/13 07:27:07;;;;;;;20.48;13.93;;;;;;;6.51;nan;99457.63;4920697;29;20241;-74
2022/03/13 07:29:33;;;;;;;25.63;15.13;;;;;;;6.66;nan;99462.09;4920546;29;20694;-74
2022/03/13 07:31:58;;;;;;;22.90;14.20;;;;;;;6.72;nan;99458.34;4920432;29;20249;-74
2022/03/13 07:34:24;;;;;;;23.30;15.03;;;;;;;6.71;nan;99464.50;4918310;29;20197;-74
2022/03/13 07:36:51;;;;;;;20.15;15.70;;;;;;;6.68;nan;99467.25;4919038;29;20224;-74
2022/03/13 07:39:18;;;;;;;22.08;14.55;;;;;;;6.63;nan;99467.47;4919898;29;20221;-74
2022/03/13 07:41:43;;;;;;;26.88;16.35;;;;;;;6.62;nan;99468.41;4920066;29;20508;-74
2022/03/13 07:44:10;;;;;;;21.50;14.87;;;;;;;6.61;nan;99456.25;4917363;29;20717;-74
2022/03/13 07:46:36;;;;;;;20.02;14.90;;;;;;;6.58;nan;99448.59;4919578;29;20296;-74
2022/03/13 07:49:02;;;;;;;19.83;12.50;;;;;;;6.55;nan;99448.75;4918401;29;20223;-74
2022/03/13 07:51:27;;;;;;;26.50;16.27;;;;;;;6.58;nan;99448.59;4920957;29;20530;-74
2022/03/13 07:53:52;;;;;;;23.80;16.90;;;;;;;6.61;nan;99446.66;4921904;29;20469;-74
2022/03/13 07:56:18;;;;;;;17.40;12.80;;;;;;;6.72;nan;99451.34;4919228;29;20217;-74
2022/03/13 07:58:44;;;;;;;22.33;15.30;;;;;;;6.87;nan;99450.59;4918261;29;20232;-74
2022/03/13 08:01:09;;;;;;;21.90;14.40;;;;;;;7.11;nan;99447.66;4919066;29;20801;-74
2022/03/13 08:03:38;;;;;;;20.30;16.50;;;;;;;7.36;nan;99449.81;4919235;29;20225;-74
2022/03/13 08:06:04;;;;;;;20.13;15.30;;;;;;;7.56;nan;99443.53;4916679;29;20217;-74
2022/03/13 08:08:30;;;;;;;23.37;15.93;;;;;;;7.79;nan;99438.81;4920196;29;20224;-74
2022/03/13 08:10:56;;;;;;;23.33;14.93;;;;;;;8.01;nan;99434.06;4919697;29;20469;-74
2022/03/13 08:13:22;;;;;;;26.65;14.75;;;;;;;8.52;nan;99426.84;4919007;29;20516;-74
2022/03/13 08:15:47;;;;;;;25.33;16.83;;;;;;;9.19;nan;99424.59;4919355;29;20206;-74
2022/03/13 08:18:13;;;;;;;16.63;12.73;;;;;;;9.77;nan;99414.91;4920454;29;20209;-74
2022/03/13 08:20:39;;;;;;;20.93;16.00;;;;;;;10.30;nan;99418.50;4921670;29;20440;-74
2022/03/13 08:23:04;;;;;;;15.57;12.15;;;;;;;11.18;nan;99420.50;4918019;29;20605;-74
2022/03/13 08:25:30;;;;;;;18.77;14.60;;;;;;;11.88;nan;99418.22;4919069;29;20216;-74
2022/03/13 08:27:56;;;;;;;17.53;13.63;;;;;;;12.65;nan;99420.44;4919809;29;20583;-74
2022/03/13 08:30:22;;;;;;;20.03;15.73;;;;;;;13.52;nan;99419.97;4919041;29;20211;-75
2022/03/13 08:32:48;;;;;;;20.40;14.98;;;;;;;14.58;nan;99413.13;4918177;29;20985;-74
2022/03/13 08:35:14;;;;;;;16.67;12.55;;;;;;;15.39;nan;99399.22;4919504;29;20213;-75
2022/03/13 08:37:41;;;;;;;17.92;13.18;;;;;;;15.82;nan;99396.31;4918818;29;20268;-74
2022/03/13 08:40:09;;;;;;;17.63;13.63;;;;;;;16.23;nan;99398.88;4918976;29;20209;-74
2022/03/13 08:42:34;;;;;;;15.50;11.38;;;;;;;16.68;nan;99403.59;4917308;29;20237;-75
2022/03/13 08:45:00;;;;;;;16.00;12.20;;;;;;;17.12;nan;99398.66;4918854;29;20254;-74
2022/03/13 08:47:26;;;;;;;14.10;12.10;;;;;;;17.58;nan;99387.16;4918547;29;20216;-75
2022/03/13 08:49:52;;;;;;;18.45;12.52;;;;;;;17.38;nan;99380.25;4918860;29;20220;-75
2022/03/13 08:52:18;;;;;;;14.93;12.10;;;;;;;17.30;nan;99377.50;4919652;29;20235;-75
2022/03/13 08:54:43;;;;;;;16.13;12.60;;;;;;;16.77;nan;99355.06;4919054;29;20362;-75
2022/03/13 08:57:09;;;;;;;19.67;14.13;;;;;;;16.44;nan;99366.94;4919244;29;20221;-74
2022/03/13 08:59:36;;;;;;;16.37;13.50;;;;;;;16.38;nan;99365.69;4917957;29;20531;-74
2022/03/13 09:02:03;;;;;;;20.55;12.90;;;;;;;16.57;nan;99363.00;4918913;29;20835;-75
2022/03/13 09:04:29;;;;;;;20.77;14.88;;;;;;;16.56;nan;99363.16;4916439;29;20648;-74
2022/03/13 09:06:56;;;;;;;18.30;14.27;;;;;;;16.48;nan;99355.91;4916929;29;20304;-75
2022/03/13 09:09:22;;;;;;;23.27;14.02;;;;;;;16.28;nan;99354.25;4918166;29;20655;-74
2022/03/13 09:11:49;;;;;;;17.77;13.27;;;;;;;15.95;nan;99350.19;4913610;29;20236;-75
2022/03/13 09:14:14;;;;;;;21.00;13.25;;;;;;;16.09;nan;99342.69;4916702;29;20197;-74
2022/03/13 09:16:42;;;;;;;16.97;13.90;;;;;;;16.41;nan;99344.19;4917253;29;20820;-74
2022/03/13 09:19:08;;;;;;;18.85;14.40;;;;;;;16.68;nan;99334.66;4912272;29;21092;-75
2022/03/13 09:21:34;;;;;;;14.23;12.77;;;;;;;16.78;nan;99324.91;4918885;29;20305;-74
2022/03/13 09:24:01;;;;;;;17.50;13.80;;;;;;;17.13;nan;99328.69;4916662;29;20272;-74
2022/03/13 09:26:26;;;;;;;20.55;15.05;;;;;;;16.99;nan;99317.56;4915286;29;20214;-74
2022/03/13 09:28:52;;;;;;;15.57;12.70;;;;;;;16.64;nan;99317.38;4914964;29;20243;-74
2022/03/13 09:31:17;;;;;;;21.63;15.10;;;;;;;16.15;nan;99312.97;4918999;29;20202;-74
2022/03/13 09:33:42;;;;;;;15.97;12.83;;;;;;;15.59;nan;99307.47;4918136;29;20264;-74
2022/03/13 09:36:08;;;;;;;17.10;14.20;;;;;;;15.29;nan;99316.34;4917842;29;20220;-74
2022/03/13 09:38:34;;;;;;;19.93;13.47;;;;;;;15.15;nan;99301.63;4914703;29;20943;-74
2022/03/13 09:40:59;;;;;;;20.13;14.20;;;;;;;15.04;nan;99305.22;4919308;29;20214;-74
2022/03/13 09:43:26;;;;;;;18.83;13.65;;;;;;;14.74;nan;99304.28;4917595;29;20253;-74
2022/03/13 09:45:51;;;;;;;19.90;14.10;;;;;;;14.66;nan;99296.16;4920101;29;20380;-74
2022/03/13 09:48:21;;;;;;;17.20;13.37;;;;;;;14.62;nan;99293.91;4918959;29;20213;-74
2022/03/13 09:50:47;;;;;;;22.40;15.77;;;;;;;14.56;nan;99284.72;4921525;29;20206;-74
2022/03/13 09:53:13;;;;;;;22.95;18.40;;;;;;;14.58;nan;99285.38;4920262;29;20279;-74
2022/03/13 09:55:39;;;;;;;24.03;17.03;;;;;;;14.56;nan;99284.72;4921334;29;20592;-74
2022/03/13 09:58:06;;;;;;;26.35;17.27;;;;;;;14.48;nan;99285.31;4921368;29;20256;-74
2022/03/13 10:00:32;;;;;;;25.75;15.98;;;;;;;14.45;nan;99296.16;4922537;29;20213;-74
2022/03/13 10:02:59;;;;;;;24.17;19.80;;;;;;;14.52;nan;99297.31;4919723;29;20489;-74
2022/03/13 10:05:25;;;;;;;24.98;17.63;;;;;;;14.48;nan;99297.69;4920944;29;20753;-74
2022/03/13 10:07:51;;;;;;;21.92;17.42;;;;;;;14.39;nan;99289.59;4921531;29;20229;-74
2022/03/13 10:10:17;;;;;;;27.40;18.30;;;;;;;14.44;nan;99291.00;4922426;29;20708;-74
2022/03/13 10:12:42;;;;;;;28.73;20.17;;;;;;;14.45;nan;99290.88;4920297;29;20236;-74
2022/03/13 10:15:08;;;;;;;23.60;17.07;;;;;;;14.42;nan;99287.63;4920658;29;20198;-74
2022/03/13 10:17:36;;;;;;;23.87;18.10;;;;;;;14.45;nan;99282.13;4921696;29;20220;-74
2022/03/13 10:20:26;;;;;;;25.42;17.25;;;;;;;14.42;nan;99279.69;4919397;29;20493;-74
2022/03/13 10:23:29;;;;;;;25.60;17.55;;;;;;;14.35;nan;99269.66;4944313;23;20254;-90
2022/03/13 10:26:01;;;;;;;22.95;19.50;;;;;;;14.41;nan;99264.81;4902375;29;20274;-93
2022/03/13 10:28:46;;;;;;;23.55;17.55;;;;;;;14.42;nan;99255.91;4907386;29;20206;-91
2022/03/13 10:31:17;;;;;;;24.33;18.20;;;;;;;14.33;nan;99262.84;4908798;29;20494;-91
2022/03/13 10:33:55;;;;;;;26.70;16.52;;;;;;;14.25;nan;99266.13;4900581;29;20469;-87
2022/03/13 10:36:41;;;;;;;;;;;;;;;;;;;;;
2022/03/13 10:39:18;;;;;;;22.50;17.05;;;;;;;14.31;nan;99251.53;4922704;29;20256;-90
2022/03/13 10:41:56;;;;;;;21.58;17.90;;;;;;;14.14;nan;99248.53;4922561;29;20190;-89
2022/03/13 10:44:27;;;;;;;21.05;16.23;;;;;;;14.06;nan;99248.34;4925926;29;20246;-89
2022/03/13 10:47:05;;;;;;;19.80;16.50;;;;;;;14.03;nan;99248.59;4931373;29;20203;-89
2022/03/13 10:49:46;;;;;;;22.25;15.77;;;;;;;14.07;nan;99239.47;4930477;29;20198;-90
2022/03/13 10:52:28;;;;;;;25.27;18.25;;;;;;;13.98;nan;99256.06;4940524;23;20262;-72
2022/03/13 10:54:55;;;;;;;22.67;15.50;;;;;;;13.88;nan;99248.09;4891976;29;20214;-73
2022/03/13 10:57:21;;;;;;;23.70;17.92;;;;;;;13.86;nan;99243.91;4901070;29;20770;-72
2022/03/13 11:00:06;;;;;;;28.63;19.43;;;;;;;13.79;nan;99240.09;4903351;29;20332;-73
2022/03/13 11:02:31;;;;;;;24.33;19.60;;;;;;;13.81;nan;99246.09;4902502;29;20582;-73
2022/03/13 11:04:57;;;;;;;21.53;18.00;;;;;;;13.77;nan;99248.16;4902238;29;20214;-73
2022/03/13 11:07:26;;;;;;;23.67;18.40;;;;;;;13.73;nan;99247.53;4902450;29;20592;-73
2022/03/13 11:09:55;;;;;;;20.40;16.98;;;;;;;13.68;nan;99255.00;4902138;29;20240;-73
2022/03/13 11:12:23;;;;;;;22.25;16.05;;;;;;;13.64;nan;99255.41;4900843;29;20309;-73
2022/03/13 11:14:49;;;;;;;22.83;17.48;;;;;;;13.69;nan;99258.47;4903013;29;20215;-73
2022/03/13 11:17:18;;;;;;;24.75;16.55;;;;;;;13.77;nan;99263.97;4904055;29;20213;-73
2022/03/13 11:19:47;;;;;;;25.45;16.80;;;;;;;13.83;nan;99260.00;4902362;29;20216;-73
2022/03/13 11:22:13;;;;;;;21.02;15.13;;;;;;;13.82;nan;99253.03;4890513;29;20260;-73
2022/03/13 11:24:40;;;;;;;21.95;17.38;;;;;;;13.85;nan;99250.13;4903083;29;20215;-73
2022/03/13 11:27:09;;;;;;;24.92;15.77;;;;;;;13.76;nan;99250.91;4902906;29;20210;-72
2022/03/13 11:29:54;;;;;;;21.80;16.85;;;;;;;13.65;nan;99251.78;4901110;29;20221;-72
2022/03/13 11:32:32;;;;;;;22.30;16.20;;;;;;;13.56;nan;99249.91;4900021;29;20236;-73
2022/03/13 11:35:10;;;;;;;24.42;18.30;;;;;;;13.56;nan;99257.81;4899582;29;20204;-73
2022/03/13 11:37:36;;;;;;;24.10;17.40;;;;;;;13.58;nan;99258.50;4901778;29;20297;-72
2022/03/13 11:40:04;;;;;;;24.90;17.13;;;;;;;13.67;nan;99263.88;4901590;29;20701;-72
2022/03/13 11:42:50;;;;;;;26.33;16.45;;;;;;;13.76;nan;99264.94;4901385;29;20504;-73